sensor_id;sensor_type;location;lat;lon;timestamp;P1;durP1;ratioP1;P2;durP2;ratioP2
20334;SDS011;10325;51.468;5.804;2023-05-07T00:01:47;2.83;;;1.50;;
20334;SDS011;10325;51.468;5.804;2023-05-07T00:04:16;2.27;;;1.50;;
20334;SDS011;10325;51.468;5.804;2023-05-07T00:06:48;1.30;;;1.20;;
20334;SDS011;10325;51.468;5.804;2023-05-07T00:09:18;2.50;;;1.50;;
20334;SDS011;10325;51.468;5.804;2023-05-07T00:11:48;1.60;;;1.43;;
20334;SDS011;10325;51.468;5.804;2023-05-07T00:14:19;2.47;;;1.47;;
20334;SDS011;10325;51.468;5.804;2023-05-07T00:16:50;2.27;;;1.60;;
20334;SDS011;10325;51.468;5.804;2023-05-07T00:19:20;2.83;;;1.73;;
20334;SDS011;10325;51.468;5.804;2023-05-07T00:21:51;3.20;;;1.30;;
20334;SDS011;10325;51.468;5.804;2023-05-07T00:24:22;2.03;;;1.23;;
20334;SDS011;10325;51.468;5.804;2023-05-07T00:26:54;2.17;;;1.30;;
20334;SDS011;10325;51.468;5.804;2023-05-07T00:29:28;2.93;;;1.30;;
20334;SDS011;10325;51.468;5.804;2023-05-07T00:32:01;1.97;;;1.30;;
20334;SDS011;10325;51.468;5.804;2023-05-07T00:34:33;1.90;;;1.50;;
20334;SDS011;10325;51.468;5.804;2023-05-07T00:37:03;2.03;;;1.53;;
20334;SDS011;10325;51.468;5.804;2023-05-07T00:39:36;2.03;;;1.33;;
20334;SDS011;10325;51.468;5.804;2023-05-07T00:42:09;2.80;;;1.60;;
20334;SDS011;10325;51.468;5.804;2023-05-07T00:44:39;2.13;;;1.53;;
20334;SDS011;10325;51.468;5.804;2023-05-07T00:47:10;2.80;;;1.70;;
20334;SDS011;10325;51.468;5.804;2023-05-07T00:49:42;1.87;;;1.30;;
20334;SDS011;10325;51.468;5.804;2023-05-07T00:52:22;2.60;;;1.70;;
20334;SDS011;10325;51.468;5.804;2023-05-07T00:54:55;2.27;;;1.37;;
20334;SDS011;10325;51.468;5.804;2023-05-07T00:57:29;2.57;;;1.47;;
20334;SDS011;10325;51.468;5.804;2023-05-07T01:00:04;2.77;;;1.40;;
20334;SDS011;10325;51.468;5.804;2023-05-07T01:02:42;1.57;;;1.27;;
20334;SDS011;10325;51.468;5.804;2023-05-07T01:05:15;3.07;;;1.43;;
20334;SDS011;10325;51.468;5.804;2023-05-07T01:07:44;1.80;;;1.47;;
20334;SDS011;10325;51.468;5.804;2023-05-07T01:10:13;2.90;;;1.30;;
20334;SDS011;10325;51.468;5.804;2023-05-07T01:12:46;1.53;;;1.30;;
20334;SDS011;10325;51.468;5.804;2023-05-07T01:15:21;2.43;;;1.43;;
20334;SDS011;10325;51.468;5.804;2023-05-07T01:17:51;1.50;;;1.20;;
20334;SDS011;10325;51.468;5.804;2023-05-07T01:20:24;2.23;;;1.33;;
20334;SDS011;10325;51.468;5.804;2023-05-07T01:22:57;1.77;;;1.30;;
20334;SDS011;10325;51.468;5.804;2023-05-07T01:25:31;1.80;;;1.70;;
20334;SDS011;10325;51.468;5.804;2023-05-07T01:28:00;3.07;;;1.60;;
20334;SDS011;10325;51.468;5.804;2023-05-07T01:30:30;2.43;;;1.50;;
20334;SDS011;10325;51.468;5.804;2023-05-07T01:33:34;2.03;;;1.40;;
20334;SDS011;10325;51.468;5.804;2023-05-07T01:35:54;2.80;;;1.40;;
20334;SDS011;10325;51.468;5.804;2023-05-07T01:38:39;1.50;;;1.40;;
20334;SDS011;10325;51.468;5.804;2023-05-07T01:41:11;1.87;;;1.40;;
20334;SDS011;10325;51.468;5.804;2023-05-07T01:43:40;1.43;;;1.33;;
20334;SDS011;10325;51.468;5.804;2023-05-07T01:46:10;2.83;;;1.50;;
20334;SDS011;10325;51.468;5.804;2023-05-07T01:48:39;1.90;;;1.33;;
20334;SDS011;10325;51.468;5.804;2023-05-07T01:51:34;1.90;;;1.50;;
20334;SDS011;10325;51.468;5.804;2023-05-07T01:54:05;2.50;;;1.60;;
20334;SDS011;10325;51.468;5.804;2023-05-07T01:56:32;2.60;;;1.60;;
20334;SDS011;10325;51.468;5.804;2023-05-07T01:59:03;2.03;;;1.60;;
20334;SDS011;10325;51.468;5.804;2023-05-07T02:01:35;1.77;;;1.40;;
20334;SDS011;10325;51.468;5.804;2023-05-07T02:04:06;1.73;;;1.50;;
20334;SDS011;10325;51.468;5.804;2023-05-07T02:06:40;1.43;;;1.33;;
20334;SDS011;10325;51.468;5.804;2023-05-07T02:09:10;3.13;;;1.60;;
20334;SDS011;10325;51.468;5.804;2023-05-07T02:11:46;2.70;;;1.63;;
20334;SDS011;10325;51.468;5.804;2023-05-07T02:14:17;2.47;;;1.53;;
20334;SDS011;10325;51.468;5.804;2023-05-07T02:16:46;2.67;;;1.50;;
20334;SDS011;10325;51.468;5.804;2023-05-07T02:19:17;2.63;;;1.50;;
20334;SDS011;10325;51.468;5.804;2023-05-07T02:21:50;2.07;;;1.50;;
20334;SDS011;10325;51.468;5.804;2023-05-07T02:24:21;2.40;;;1.53;;
20334;SDS011;10325;51.468;5.804;2023-05-07T02:26:50;1.73;;;1.37;;
20334;SDS011;10325;51.468;5.804;2023-05-07T02:29:24;2.17;;;1.60;;
20334;SDS011;10325;51.468;5.804;2023-05-07T02:31:53;1.90;;;1.53;;
20334;SDS011;10325;51.468;5.804;2023-05-07T02:34:24;2.23;;;1.33;;
20334;SDS011;10325;51.468;5.804;2023-05-07T02:37:03;1.97;;;1.40;;
20334;SDS011;10325;51.468;5.804;2023-05-07T02:39:35;1.50;;;1.40;;
20334;SDS011;10325;51.468;5.804;2023-05-07T02:42:07;2.07;;;1.50;;
20334;SDS011;10325;51.468;5.804;2023-05-07T02:44:37;2.23;;;1.73;;
20334;SDS011;10325;51.468;5.804;2023-05-07T02:47:09;3.30;;;1.70;;
20334;SDS011;10325;51.468;5.804;2023-05-07T02:49:42;2.27;;;1.60;;
20334;SDS011;10325;51.468;5.804;2023-05-07T02:52:13;1.60;;;1.50;;
20334;SDS011;10325;51.468;5.804;2023-05-07T02:54:44;1.53;;;1.43;;
20334;SDS011;10325;51.468;5.804;2023-05-07T02:57:16;1.50;;;1.30;;
20334;SDS011;10325;51.468;5.804;2023-05-07T02:59:45;1.50;;;1.40;;
20334;SDS011;10325;51.468;5.804;2023-05-07T03:02:20;2.03;;;1.70;;
20334;SDS011;10325;51.468;5.804;2023-05-07T03:04:51;1.53;;;1.33;;
20334;SDS011;10325;51.468;5.804;2023-05-07T03:07:20;3.80;;;1.80;;
20334;SDS011;10325;51.468;5.804;2023-05-07T03:09:51;2.43;;;1.60;;
20334;SDS011;10325;51.468;5.804;2023-05-07T03:12:24;2.20;;;1.63;;
20334;SDS011;10325;51.468;5.804;2023-05-07T03:14:56;2.00;;;1.60;;
20334;SDS011;10325;51.468;5.804;2023-05-07T03:17:32;1.40;;;1.30;;
20334;SDS011;10325;51.468;5.804;2023-05-07T03:20:02;2.03;;;1.50;;
20334;SDS011;10325;51.468;5.804;2023-05-07T03:22:32;1.70;;;1.60;;
20334;SDS011;10325;51.468;5.804;2023-05-07T03:25:02;2.13;;;1.60;;
20334;SDS011;10325;51.468;5.804;2023-05-07T03:27:34;2.50;;;1.70;;
20334;SDS011;10325;51.468;5.804;2023-05-07T03:30:03;2.30;;;1.50;;
20334;SDS011;10325;51.468;5.804;2023-05-07T03:32:39;2.43;;;1.53;;
20334;SDS011;10325;51.468;5.804;2023-05-07T03:35:10;2.33;;;1.73;;
20334;SDS011;10325;51.468;5.804;2023-05-07T03:37:38;3.63;;;1.80;;
20334;SDS011;10325;51.468;5.804;2023-05-07T03:40:06;2.57;;;1.77;;
20334;SDS011;10325;51.468;5.804;2023-05-07T03:42:40;2.17;;;1.97;;
20334;SDS011;10325;51.468;5.804;2023-05-07T03:45:12;2.57;;;1.70;;
20334;SDS011;10325;51.468;5.804;2023-05-07T03:47:40;2.27;;;1.90;;
20334;SDS011;10325;51.468;5.804;2023-05-07T03:50:09;1.97;;;1.60;;
20334;SDS011;10325;51.468;5.804;2023-05-07T03:52:42;1.93;;;1.77;;
20334;SDS011;10325;51.468;5.804;2023-05-07T03:55:32;1.60;;;1.50;;
20334;SDS011;10325;51.468;5.804;2023-05-07T03:58:53;2.80;;;1.70;;
20334;SDS011;10325;51.468;5.804;2023-05-07T04:01:30;1.57;;;1.47;;
20334;SDS011;10325;51.468;5.804;2023-05-07T04:03:59;1.70;;;1.57;;
20334;SDS011;10325;51.468;5.804;2023-05-07T04:06:28;2.00;;;1.70;;
20334;SDS011;10325;51.468;5.804;2023-05-07T04:08:59;2.67;;;1.80;;
20334;SDS011;10325;51.468;5.804;2023-05-07T04:11:35;2.10;;;1.70;;
20334;SDS011;10325;51.468;5.804;2023-05-07T04:14:06;3.03;;;1.70;;
20334;SDS011;10325;51.468;5.804;2023-05-07T04:16:34;1.90;;;1.70;;
20334;SDS011;10325;51.468;5.804;2023-05-07T04:19:02;1.90;;;1.70;;
20334;SDS011;10325;51.468;5.804;2023-05-07T04:21:33;1.97;;;1.60;;
20334;SDS011;10325;51.468;5.804;2023-05-07T04:24:05;1.90;;;1.60;;
20334;SDS011;10325;51.468;5.804;2023-05-07T04:26:32;2.10;;;1.70;;
20334;SDS011;10325;51.468;5.804;2023-05-07T04:29:00;2.27;;;1.80;;
20334;SDS011;10325;51.468;5.804;2023-05-07T04:31:31;2.70;;;1.60;;
20334;SDS011;10325;51.468;5.804;2023-05-07T04:34:01;1.70;;;1.60;;
20334;SDS011;10325;51.468;5.804;2023-05-07T04:36:33;2.53;;;1.93;;
20334;SDS011;10325;51.468;5.804;2023-05-07T04:39:04;1.70;;;1.60;;
20334;SDS011;10325;51.468;5.804;2023-05-07T04:41:36;2.00;;;1.77;;
20334;SDS011;10325;51.468;5.804;2023-05-07T04:44:08;2.17;;;1.67;;
20334;SDS011;10325;51.468;5.804;2023-05-07T04:46:38;2.33;;;1.97;;
20334;SDS011;10325;51.468;5.804;2023-05-07T04:49:06;2.20;;;2.00;;
20334;SDS011;10325;51.468;5.804;2023-05-07T04:51:35;2.87;;;2.00;;
20334;SDS011;10325;51.468;5.804;2023-05-07T04:54:05;2.23;;;1.67;;
20334;SDS011;10325;51.468;5.804;2023-05-07T04:56:36;2.73;;;1.80;;
20334;SDS011;10325;51.468;5.804;2023-05-07T04:59:07;2.50;;;1.90;;
20334;SDS011;10325;51.468;5.804;2023-05-07T05:01:39;2.00;;;1.80;;
20334;SDS011;10325;51.468;5.804;2023-05-07T05:04:08;2.60;;;1.70;;
20334;SDS011;10325;51.468;5.804;2023-05-07T05:06:39;2.67;;;1.60;;
20334;SDS011;10325;51.468;5.804;2023-05-07T05:09:09;2.97;;;1.97;;
20334;SDS011;10325;51.468;5.804;2023-05-07T05:11:41;2.17;;;1.50;;
20334;SDS011;10325;51.468;5.804;2023-05-07T05:14:08;2.57;;;1.80;;
20334;SDS011;10325;51.468;5.804;2023-05-07T05:16:38;2.90;;;2.13;;
20334;SDS011;10325;51.468;5.804;2023-05-07T05:19:09;2.97;;;1.87;;
20334;SDS011;10325;51.468;5.804;2023-05-07T05:21:41;2.30;;;1.90;;
20334;SDS011;10325;51.468;5.804;2023-05-07T05:24:12;2.07;;;1.90;;
20334;SDS011;10325;51.468;5.804;2023-05-07T05:26:45;1.70;;;1.60;;
20334;SDS011;10325;51.468;5.804;2023-05-07T05:29:15;3.70;;;2.00;;
20334;SDS011;10325;51.468;5.804;2023-05-07T05:31:45;2.10;;;1.60;;
20334;SDS011;10325;51.468;5.804;2023-05-07T05:34:17;2.30;;;1.80;;
20334;SDS011;10325;51.468;5.804;2023-05-07T05:36:49;2.03;;;1.70;;
20334;SDS011;10325;51.468;5.804;2023-05-07T05:39:20;2.53;;;1.53;;
20334;SDS011;10325;51.468;5.804;2023-05-07T05:41:51;2.10;;;1.90;;
20334;SDS011;10325;51.468;5.804;2023-05-07T05:44:20;2.73;;;2.13;;
20334;SDS011;10325;51.468;5.804;2023-05-07T05:46:52;1.67;;;1.57;;
20334;SDS011;10325;51.468;5.804;2023-05-07T05:49:41;2.13;;;1.83;;
20334;SDS011;10325;51.468;5.804;2023-05-07T05:52:15;1.90;;;1.80;;
20334;SDS011;10325;51.468;5.804;2023-05-07T05:54:47;2.70;;;2.00;;
20334;SDS011;10325;51.468;5.804;2023-05-07T05:57:18;2.00;;;1.80;;
20334;SDS011;10325;51.468;5.804;2023-05-07T05:59:53;2.10;;;1.90;;
20334;SDS011;10325;51.468;5.804;2023-05-07T06:02:26;3.10;;;2.17;;
20334;SDS011;10325;51.468;5.804;2023-05-07T06:04:57;2.83;;;1.90;;
20334;SDS011;10325;51.468;5.804;2023-05-07T06:07:30;2.00;;;1.80;;
20334;SDS011;10325;51.468;5.804;2023-05-07T06:10:01;1.63;;;1.50;;
20334;SDS011;10325;51.468;5.804;2023-05-07T06:12:30;2.90;;;2.00;;
20334;SDS011;10325;51.468;5.804;2023-05-07T06:14:57;2.10;;;1.90;;
20334;SDS011;10325;51.468;5.804;2023-05-07T06:17:34;3.37;;;2.07;;
20334;SDS011;10325;51.468;5.804;2023-05-07T06:20:13;1.97;;;1.60;;
20334;SDS011;10325;51.468;5.804;2023-05-07T06:22:46;2.20;;;1.90;;
20334;SDS011;10325;51.468;5.804;2023-05-07T06:25:17;2.63;;;2.00;;
20334;SDS011;10325;51.468;5.804;2023-05-07T06:27:48;3.10;;;1.80;;
20334;SDS011;10325;51.468;5.804;2023-05-07T06:30:17;2.30;;;2.07;;
20334;SDS011;10325;51.468;5.804;2023-05-07T06:32:45;1.90;;;1.80;;
20334;SDS011;10325;51.468;5.804;2023-05-07T06:35:15;1.63;;;1.53;;
20334;SDS011;10325;51.468;5.804;2023-05-07T06:37:44;2.00;;;1.90;;
20334;SDS011;10325;51.468;5.804;2023-05-07T06:40:13;2.20;;;2.00;;
20334;SDS011;10325;51.468;5.804;2023-05-07T06:42:43;2.00;;;1.80;;
20334;SDS011;10325;51.468;5.804;2023-05-07T06:45:13;2.33;;;1.90;;
20334;SDS011;10325;51.468;5.804;2023-05-07T06:47:41;5.53;;;1.87;;
20334;SDS011;10325;51.468;5.804;2023-05-07T06:50:12;1.73;;;1.63;;
20334;SDS011;10325;51.468;5.804;2023-05-07T06:52:42;2.13;;;1.60;;
20334;SDS011;10325;51.468;5.804;2023-05-07T06:55:12;2.20;;;2.00;;
20334;SDS011;10325;51.468;5.804;2023-05-07T06:57:41;2.30;;;2.00;;
20334;SDS011;10325;51.468;5.804;2023-05-07T07:00:11;2.00;;;1.80;;
20334;SDS011;10325;51.468;5.804;2023-05-07T07:02:45;1.97;;;1.80;;
20334;SDS011;10325;51.468;5.804;2023-05-07T07:05:15;2.73;;;2.00;;
20334;SDS011;10325;51.468;5.804;2023-05-07T07:07:46;2.00;;;1.80;;
20334;SDS011;10325;51.468;5.804;2023-05-07T07:10:34;2.10;;;1.90;;
20334;SDS011;10325;51.468;5.804;2023-05-07T07:13:08;2.30;;;1.80;;
20334;SDS011;10325;51.468;5.804;2023-05-07T07:15:37;1.60;;;1.50;;
20334;SDS011;10325;51.468;5.804;2023-05-07T07:18:09;2.10;;;1.90;;
20334;SDS011;10325;51.468;5.804;2023-05-07T07:20:39;2.67;;;1.90;;
20334;SDS011;10325;51.468;5.804;2023-05-07T07:23:09;1.70;;;1.60;;
20334;SDS011;10325;51.468;5.804;2023-05-07T07:25:39;1.83;;;1.60;;
20334;SDS011;10325;51.468;5.804;2023-05-07T07:28:10;2.10;;;1.90;;
20334;SDS011;10325;51.468;5.804;2023-05-07T07:30:40;2.43;;;2.23;;
20334;SDS011;10325;51.468;5.804;2023-05-07T07:33:24;2.33;;;1.70;;
20334;SDS011;10325;51.468;5.804;2023-05-07T07:35:56;2.03;;;1.83;;
20334;SDS011;10325;51.468;5.804;2023-05-07T07:38:36;2.00;;;1.77;;
20334;SDS011;10325;51.468;5.804;2023-05-07T07:41:08;2.53;;;1.67;;
20334;SDS011;10325;51.468;5.804;2023-05-07T07:43:37;1.70;;;1.60;;
20334;SDS011;10325;51.468;5.804;2023-05-07T07:46:06;2.73;;;2.00;;
20334;SDS011;10325;51.468;5.804;2023-05-07T07:48:38;1.50;;;1.40;;
20334;SDS011;10325;51.468;5.804;2023-05-07T07:51:23;2.93;;;1.87;;
20334;SDS011;10325;51.468;5.804;2023-05-07T07:53:55;3.50;;;1.80;;
20334;SDS011;10325;51.468;5.804;2023-05-07T07:56:28;3.67;;;2.27;;
20334;SDS011;10325;51.468;5.804;2023-05-07T07:59:03;7.87;;;2.40;;
20334;SDS011;10325;51.468;5.804;2023-05-07T08:01:35;5.47;;;2.50;;
20334;SDS011;10325;51.468;5.804;2023-05-07T08:04:06;4.47;;;2.90;;
20334;SDS011;10325;51.468;5.804;2023-05-07T08:06:38;3.90;;;2.33;;
20334;SDS011;10325;51.468;5.804;2023-05-07T08:09:05;7.13;;;2.50;;
20334;SDS011;10325;51.468;5.804;2023-05-07T08:11:38;4.77;;;2.53;;
20334;SDS011;10325;51.468;5.804;2023-05-07T08:14:08;4.37;;;2.67;;
20334;SDS011;10325;51.468;5.804;2023-05-07T08:16:42;6.40;;;2.47;;
20334;SDS011;10325;51.468;5.804;2023-05-07T08:19:13;7.50;;;2.50;;
20334;SDS011;10325;51.468;5.804;2023-05-07T08:21:43;2.77;;;2.37;;
20334;SDS011;10325;51.468;5.804;2023-05-07T08:24:16;5.63;;;2.60;;
20334;SDS011;10325;51.468;5.804;2023-05-07T08:26:47;3.73;;;2.50;;
20334;SDS011;10325;51.468;5.804;2023-05-07T08:29:18;3.67;;;2.50;;
20334;SDS011;10325;51.468;5.804;2023-05-07T08:31:47;3.37;;;2.37;;
20334;SDS011;10325;51.468;5.804;2023-05-07T08:34:15;3.13;;;2.50;;
20334;SDS011;10325;51.468;5.804;2023-05-07T08:36:46;4.40;;;2.43;;
20334;SDS011;10325;51.468;5.804;2023-05-07T08:39:19;5.10;;;2.23;;
20334;SDS011;10325;51.468;5.804;2023-05-07T08:41:48;6.90;;;2.70;;
20334;SDS011;10325;51.468;5.804;2023-05-07T08:44:26;3.73;;;2.50;;
20334;SDS011;10325;51.468;5.804;2023-05-07T08:46:55;6.43;;;2.90;;
20334;SDS011;10325;51.468;5.804;2023-05-07T08:49:28;4.30;;;2.60;;
20334;SDS011;10325;51.468;5.804;2023-05-07T08:51:57;3.67;;;2.17;;
20334;SDS011;10325;51.468;5.804;2023-05-07T08:54:26;3.30;;;2.10;;
20334;SDS011;10325;51.468;5.804;2023-05-07T08:57:07;6.40;;;2.73;;
20334;SDS011;10325;51.468;5.804;2023-05-07T08:59:36;12.90;;;3.10;;
20334;SDS011;10325;51.468;5.804;2023-05-07T09:02:12;10.27;;;3.20;;
20334;SDS011;10325;51.468;5.804;2023-05-07T09:04:44;9.57;;;3.03;;
20334;SDS011;10325;51.468;5.804;2023-05-07T09:07:12;14.63;;;3.50;;
20334;SDS011;10325;51.468;5.804;2023-05-07T09:09:43;10.80;;;3.33;;
20334;SDS011;10325;51.468;5.804;2023-05-07T09:12:12;10.43;;;3.30;;
20334;SDS011;10325;51.468;5.804;2023-05-07T09:14:42;5.73;;;2.50;;
20334;SDS011;10325;51.468;5.804;2023-05-07T09:17:12;7.67;;;3.20;;
20334;SDS011;10325;51.468;5.804;2023-05-07T09:19:43;7.73;;;3.40;;
20334;SDS011;10325;51.468;5.804;2023-05-07T09:22:19;6.87;;;3.37;;
20334;SDS011;10325;51.468;5.804;2023-05-07T09:24:51;7.40;;;3.73;;
20334;SDS011;10325;51.468;5.804;2023-05-07T09:27:22;7.87;;;3.40;;
20334;SDS011;10325;51.468;5.804;2023-05-07T09:29:54;9.37;;;3.47;;
20334;SDS011;10325;51.468;5.804;2023-05-07T09:32:25;8.87;;;3.47;;
20334;SDS011;10325;51.468;5.804;2023-05-07T09:35:04;7.53;;;3.20;;
20334;SDS011;10325;51.468;5.804;2023-05-07T09:37:37;6.27;;;2.80;;
20334;SDS011;10325;51.468;5.804;2023-05-07T09:40:19;7.93;;;2.73;;
20334;SDS011;10325;51.468;5.804;2023-05-07T09:42:56;11.43;;;3.40;;
20334;SDS011;10325;51.468;5.804;2023-05-07T09:45:51;9.53;;;3.13;;
20334;SDS011;10325;51.468;5.804;2023-05-07T09:48:25;7.80;;;2.70;;
20334;SDS011;10325;51.468;5.804;2023-05-07T09:51:01;4.53;;;2.60;;
20334;SDS011;10325;51.468;5.804;2023-05-07T09:53:33;7.90;;;2.97;;
20334;SDS011;10325;51.468;5.804;2023-05-07T09:56:07;5.70;;;2.60;;
20334;SDS011;10325;51.468;5.804;2023-05-07T09:58:36;5.27;;;2.63;;
20334;SDS011;10325;51.468;5.804;2023-05-07T10:01:07;5.00;;;2.67;;
20334;SDS011;10325;51.468;5.804;2023-05-07T10:03:42;5.57;;;3.17;;
20334;SDS011;10325;51.468;5.804;2023-05-07T10:06:13;5.97;;;2.97;;
20334;SDS011;10325;51.468;5.804;2023-05-07T10:08:48;6.17;;;3.03;;
20334;SDS011;10325;51.468;5.804;2023-05-07T10:11:21;4.70;;;2.77;;
20334;SDS011;10325;51.468;5.804;2023-05-07T10:13:53;3.50;;;2.23;;
20334;SDS011;10325;51.468;5.804;2023-05-07T10:16:25;3.73;;;2.33;;
20334;SDS011;10325;51.468;5.804;2023-05-07T10:19:03;4.80;;;2.40;;
20334;SDS011;10325;51.468;5.804;2023-05-07T10:21:55;3.13;;;2.23;;
20334;SDS011;10325;51.468;5.804;2023-05-07T10:24:38;7.47;;;2.50;;
20334;SDS011;10325;51.468;5.804;2023-05-07T10:27:14;5.03;;;2.57;;
20334;SDS011;10325;51.468;5.804;2023-05-07T10:30:07;5.63;;;2.53;;
20334;SDS011;10325;51.468;5.804;2023-05-07T10:32:51;3.40;;;2.30;;
20334;SDS011;10325;51.468;5.804;2023-05-07T10:35:38;3.63;;;2.10;;
20334;SDS011;10325;51.468;5.804;2023-05-07T10:38:12;3.50;;;2.67;;
20334;SDS011;10325;51.468;5.804;2023-05-07T10:40:41;5.03;;;3.00;;
20334;SDS011;10325;51.468;5.804;2023-05-07T10:43:13;6.90;;;3.27;;
20334;SDS011;10325;51.468;5.804;2023-05-07T10:46:11;5.77;;;3.00;;
20334;SDS011;10325;51.468;5.804;2023-05-07T10:51:34;5.50;;;3.57;;
20334;SDS011;10325;51.468;5.804;2023-05-07T10:54:20;5.77;;;3.43;;
20334;SDS011;10325;51.468;5.804;2023-05-07T10:56:56;4.53;;;2.80;;
20334;SDS011;10325;51.468;5.804;2023-05-07T10:59:52;4.27;;;2.87;;
20334;SDS011;10325;51.468;5.804;2023-05-07T11:03:12;4.77;;;2.67;;
20334;SDS011;10325;51.468;5.804;2023-05-07T11:05:30;3.40;;;2.20;;
20334;SDS011;10325;51.468;5.804;2023-05-07T11:08:03;5.07;;;2.90;;
20334;SDS011;10325;51.468;5.804;2023-05-07T11:10:48;3.93;;;2.27;;
20334;SDS011;10325;51.468;5.804;2023-05-07T11:13:41;6.00;;;2.77;;
20334;SDS011;10325;51.468;5.804;2023-05-07T11:16:22;4.40;;;2.70;;
20334;SDS011;10325;51.468;5.804;2023-05-07T11:18:54;4.80;;;2.60;;
20334;SDS011;10325;51.468;5.804;2023-05-07T11:21:38;7.80;;;2.70;;
20334;SDS011;10325;51.468;5.804;2023-05-07T11:24:16;2.20;;;2.00;;
20334;SDS011;10325;51.468;5.804;2023-05-07T11:26:49;4.17;;;2.23;;
20334;SDS011;10325;51.468;5.804;2023-05-07T11:29:20;5.73;;;2.50;;
20334;SDS011;10325;51.468;5.804;2023-05-07T11:31:54;3.13;;;2.07;;
20334;SDS011;10325;51.468;5.804;2023-05-07T11:34:34;4.53;;;2.53;;
20334;SDS011;10325;51.468;5.804;2023-05-07T11:37:06;5.00;;;2.20;;
20334;SDS011;10325;51.468;5.804;2023-05-07T11:39:40;5.97;;;2.53;;
20334;SDS011;10325;51.468;5.804;2023-05-07T11:45:06;3.80;;;2.20;;
20334;SDS011;10325;51.468;5.804;2023-05-07T11:47:41;3.00;;;2.20;;
20334;SDS011;10325;51.468;5.804;2023-05-07T11:50:12;2.83;;;2.10;;
20334;SDS011;10325;51.468;5.804;2023-05-07T11:52:50;3.37;;;2.10;;
20334;SDS011;10325;51.468;5.804;2023-05-07T11:55:21;3.63;;;2.10;;
20334;SDS011;10325;51.468;5.804;2023-05-07T11:57:52;3.40;;;2.30;;
20334;SDS011;10325;51.468;5.804;2023-05-07T12:00:20;2.43;;;1.90;;
20334;SDS011;10325;51.468;5.804;2023-05-07T12:03:22;3.07;;;2.23;;
20334;SDS011;10325;51.468;5.804;2023-05-07T12:05:51;2.37;;;1.83;;
20334;SDS011;10325;51.468;5.804;2023-05-07T12:08:21;2.57;;;1.77;;
20334;SDS011;10325;51.468;5.804;2023-05-07T12:10:52;3.87;;;2.17;;
20334;SDS011;10325;51.468;5.804;2023-05-07T12:13:24;3.23;;;2.27;;
20334;SDS011;10325;51.468;5.804;2023-05-07T12:15:57;3.30;;;1.90;;
20334;SDS011;10325;51.468;5.804;2023-05-07T12:18:32;2.83;;;2.10;;
20334;SDS011;10325;51.468;5.804;2023-05-07T12:21:01;3.80;;;2.20;;
20334;SDS011;10325;51.468;5.804;2023-05-07T12:23:33;2.73;;;2.10;;
20334;SDS011;10325;51.468;5.804;2023-05-07T12:26:16;4.00;;;2.10;;
20334;SDS011;10325;51.468;5.804;2023-05-07T12:28:50;3.00;;;1.93;;
20334;SDS011;10325;51.468;5.804;2023-05-07T12:31:18;3.07;;;2.13;;
20334;SDS011;10325;51.468;5.804;2023-05-07T12:33:47;2.33;;;2.03;;
20334;SDS011;10325;51.468;5.804;2023-05-07T12:36:15;4.10;;;2.20;;
20334;SDS011;10325;51.468;5.804;2023-05-07T12:38:51;2.10;;;1.70;;
20334;SDS011;10325;51.468;5.804;2023-05-07T12:41:23;2.37;;;1.80;;
20334;SDS011;10325;51.468;5.804;2023-05-07T12:43:58;2.03;;;1.80;;
20334;SDS011;10325;51.468;5.804;2023-05-07T12:46:38;2.57;;;1.80;;
20334;SDS011;10325;51.468;5.804;2023-05-07T12:49:07;4.23;;;1.90;;
20334;SDS011;10325;51.468;5.804;2023-05-07T12:51:35;1.93;;;1.60;;
20334;SDS011;10325;51.468;5.804;2023-05-07T12:54:11;3.20;;;1.83;;
20334;SDS011;10325;51.468;5.804;2023-05-07T12:56:41;2.23;;;1.80;;
20334;SDS011;10325;51.468;5.804;2023-05-07T12:59:14;2.00;;;1.77;;
20334;SDS011;10325;51.468;5.804;2023-05-07T13:01:44;3.00;;;1.93;;
20334;SDS011;10325;51.468;5.804;2023-05-07T13:04:16;2.33;;;2.00;;
20334;SDS011;10325;51.468;5.804;2023-05-07T13:06:47;3.10;;;1.60;;
20334;SDS011;10325;51.468;5.804;2023-05-07T13:09:17;3.47;;;1.60;;
20334;SDS011;10325;51.468;5.804;2023-05-07T13:11:49;3.77;;;1.90;;
20334;SDS011;10325;51.468;5.804;2023-05-07T13:14:22;1.43;;;1.33;;
20334;SDS011;10325;51.468;5.804;2023-05-07T13:16:52;1.93;;;1.40;;
20334;SDS011;10325;51.468;5.804;2023-05-07T13:19:24;3.93;;;1.50;;
20334;SDS011;10325;51.468;5.804;2023-05-07T13:21:58;2.67;;;1.60;;
20334;SDS011;10325;51.468;5.804;2023-05-07T13:24:26;2.80;;;1.57;;
20334;SDS011;10325;51.468;5.804;2023-05-07T13:26:56;3.90;;;2.00;;
20334;SDS011;10325;51.468;5.804;2023-05-07T13:29:29;3.73;;;1.80;;
20334;SDS011;10325;51.468;5.804;2023-05-07T13:32:01;2.17;;;1.47;;
20334;SDS011;10325;51.468;5.804;2023-05-07T13:34:33;2.57;;;1.70;;
20334;SDS011;10325;51.468;5.804;2023-05-07T13:37:05;2.87;;;1.30;;
20334;SDS011;10325;51.468;5.804;2023-05-07T13:39:38;1.73;;;1.63;;
20334;SDS011;10325;51.468;5.804;2023-05-07T13:42:11;3.30;;;1.57;;
20334;SDS011;10325;51.468;5.804;2023-05-07T13:44:43;2.20;;;1.40;;
20334;SDS011;10325;51.468;5.804;2023-05-07T13:47:14;2.10;;;1.37;;
20334;SDS011;10325;51.468;5.804;2023-05-07T13:49:44;3.27;;;1.30;;
20334;SDS011;10325;51.468;5.804;2023-05-07T13:52:12;1.93;;;1.30;;
20334;SDS011;10325;51.468;5.804;2023-05-07T13:54:41;1.77;;;1.60;;
20334;SDS011;10325;51.468;5.804;2023-05-07T13:57:11;3.87;;;1.43;;
20334;SDS011;10325;51.468;5.804;2023-05-07T13:59:42;1.40;;;1.30;;
20334;SDS011;10325;51.468;5.804;2023-05-07T14:02:13;4.40;;;1.40;;
20334;SDS011;10325;51.468;5.804;2023-05-07T14:04:44;2.17;;;1.50;;
20334;SDS011;10325;51.468;5.804;2023-05-07T14:07:16;1.93;;;1.47;;
20334;SDS011;10325;51.468;5.804;2023-05-07T14:09:45;1.67;;;1.50;;
20334;SDS011;10325;51.468;5.804;2023-05-07T14:12:23;2.07;;;1.50;;
20334;SDS011;10325;51.468;5.804;2023-05-07T14:14:57;2.33;;;1.47;;
20334;SDS011;10325;51.468;5.804;2023-05-07T14:17:40;2.57;;;1.60;;
20334;SDS011;10325;51.468;5.804;2023-05-07T14:20:11;2.13;;;1.40;;
20334;SDS011;10325;51.468;5.804;2023-05-07T14:22:43;3.97;;;1.60;;
20334;SDS011;10325;51.468;5.804;2023-05-07T14:25:15;2.27;;;1.20;;
20334;SDS011;10325;51.468;5.804;2023-05-07T14:27:46;2.43;;;1.60;;
20334;SDS011;10325;51.468;5.804;2023-05-07T14:30:19;3.53;;;1.50;;
20334;SDS011;10325;51.468;5.804;2023-05-07T14:32:52;1.93;;;1.40;;
20334;SDS011;10325;51.468;5.804;2023-05-07T14:35:22;2.40;;;1.37;;
20334;SDS011;10325;51.468;5.804;2023-05-07T14:37:53;2.30;;;1.30;;
20334;SDS011;10325;51.468;5.804;2023-05-07T14:40:22;3.03;;;1.23;;
20334;SDS011;10325;51.468;5.804;2023-05-07T14:42:50;1.73;;;1.03;;
20334;SDS011;10325;51.468;5.804;2023-05-07T14:45:20;2.57;;;1.47;;
20334;SDS011;10325;51.468;5.804;2023-05-07T14:47:50;1.57;;;1.17;;
20334;SDS011;10325;51.468;5.804;2023-05-07T14:50:22;1.67;;;1.23;;
20334;SDS011;10325;51.468;5.804;2023-05-07T14:52:58;1.63;;;1.30;;
20334;SDS011;10325;51.468;5.804;2023-05-07T14:55:25;1.60;;;1.13;;
20334;SDS011;10325;51.468;5.804;2023-05-07T14:58:00;2.60;;;1.30;;
20334;SDS011;10325;51.468;5.804;2023-05-07T15:00:42;1.90;;;1.20;;
20334;SDS011;10325;51.468;5.804;2023-05-07T15:03:13;2.83;;;1.40;;
20334;SDS011;10325;51.468;5.804;2023-05-07T15:05:42;1.93;;;1.33;;
20334;SDS011;10325;51.468;5.804;2023-05-07T15:08:11;1.33;;;1.20;;
20334;SDS011;10325;51.468;5.804;2023-05-07T15:10:45;3.40;;;1.13;;
20334;SDS011;10325;51.468;5.804;2023-05-07T15:13:14;1.97;;;1.10;;
20334;SDS011;10325;51.468;5.804;2023-05-07T15:15:44;1.43;;;1.20;;
20334;SDS011;10325;51.468;5.804;2023-05-07T15:18:14;1.53;;;1.13;;
20334;SDS011;10325;51.468;5.804;2023-05-07T15:20:50;1.77;;;1.13;;
20334;SDS011;10325;51.468;5.804;2023-05-07T15:23:18;1.50;;;1.20;;
20334;SDS011;10325;51.468;5.804;2023-05-07T15:25:46;1.67;;;1.10;;
20334;SDS011;10325;51.468;5.804;2023-05-07T15:28:17;1.37;;;1.10;;